Time;durP1;ratioP1;P1;durP2;ratioP2;P2;SDS_P1;SDS_P2;PMS_P1;PMS_P2;Temp;Humidity;BMP_temperature;BMP_pressure;BME280_temperature;BME280_humidity;BME280_pressure;Samples;Min_cycle;Max_cycle;Signal;HPM_P1;HPM_P2
2022/01/31 00:00:09;;;;;;;21.67;5.55;;;;;;;;;;10196644;28;20084;-63
2022/01/31 00:05:11;;;;;;;28.33;5.38;;;;;;;;;;10199985;28;20087;-63
2022/01/31 00:10:12;;;;;;;25.88;5.40;;;;;;;;;;10195216;28;20488;-62
2022/01/31 00:15:11;;;;;;;16.10;4.85;;;;;;;;;;10193220;28;20088;-62
2022/01/31 00:20:09;;;;;;;19.75;4.80;;;;;;;;;;10202781;28;20078;-64
2022/01/31 00:25:09;;;;;;;24.63;5.05;;;;;;;;;;10193681;28;20112;-62
2022/01/31 00:30:08;;;;;;;22.05;4.57;;;;;;;;;;10194447;28;20046;-63
2022/01/31 00:35:07;;;;;;;22.00;4.65;;;;;;;;;;10210662;28;20089;-63
2022/01/31 00:40:07;;;;;;;12.75;3.88;;;;;;;;;;10192039;28;20085;-62
2022/01/31 00:45:13;;;;;;;17.40;4.78;;;;;;;;;;10191681;28;20042;-62
2022/01/31 00:50:14;;;;;;;20.77;3.53;;;;;;;;;;10205854;28;20085;-62
2022/01/31 00:55:14;;;;;;;15.43;4.75;;;;;;;;;;10190708;28;20556;-63
2022/01/31 01:00:15;;;;;;;17.73;2.58;;;;;;;;;;10191173;28;20076;-62
2022/01/31 01:05:14;;;;;;;18.77;4.10;;;;;;;;;;10190729;28;20112;-62
2022/01/31 01:10:12;;;;;;;19.50;4.95;;;;;;;;;;10190504;28;20065;-61
2022/01/31 01:15:11;;;;;;;18.98;5.80;;;;;;;;;;10192237;28;20049;-63
2022/01/31 01:20:11;;;;;;;11.32;3.60;;;;;;;;;;10205130;28;20092;-62
2022/01/31 01:25:12;;;;;;;22.52;4.80;;;;;;;;;;10187161;28;20365;-62
2022/01/31 01:30:11;;;;;;;11.27;3.30;;;;;;;;;;10205228;28;20046;-60
2022/01/31 01:35:11;;;;;;;18.40;4.53;;;;;;;;;;10189737;28;20070;-63
2022/01/31 01:40:09;;;;;;;12.50;3.42;;;;;;;;;;10189175;28;20096;-63
2022/01/31 01:45:08;;;;;;;8.38;3.80;;;;;;;;;;10189343;28;20057;-62
2022/01/31 01:50:13;;;;;;;17.98;6.35;;;;;;;;;;10188378;28;20050;-62
2022/01/31 01:55:12;;;;;;;15.98;4.65;;;;;;;;;;10189806;28;20081;-61
2022/01/31 02:00:16;;;;;;;19.27;3.70;;;;;;;;;;10190745;28;20092;-62
2022/01/31 02:05:15;;;;;;;11.95;4.57;;;;;;;;;;10189697;28;20081;-63
2022/01/31 02:10:15;;;;;;;9.07;4.55;;;;;;;;;;10189487;28;20048;-63
2022/01/31 02:15:33;;;;;;;16.80;4.13;;;;;;;;;;10190307;28;20057;-62
2022/01/31 02:21:01;;;;;;;20.92;10.73;;;;;;;;;;10205320;28;20077;-62
2022/01/31 02:26:04;;;;;;;49.80;16.58;;;;;;;;;;10186984;28;20061;-62
2022/01/31 02:31:23;;;;;;;15.40;5.45;;;;;;;;;;10183101;28;20081;-62
2022/01/31 02:36:23;;;;;;;19.00;5.70;;;;;;;;;;10187871;28;20085;-62
2022/01/31 02:41:21;;;;;;;22.40;5.57;;;;;;;;;;10186466;28;20046;-62
2022/01/31 02:46:22;;;;;;;15.50;4.60;;;;;;;;;;10188090;28;20073;-62
2022/01/31 02:51:27;;;;;;;8.63;3.50;;;;;;;;;;10189721;28;20049;-62
2022/01/31 02:56:25;;;;;;;9.38;3.80;;;;;;;;;;10189752;28;20157;-62
2022/01/31 03:01:24;;;;;;;14.30;5.40;;;;;;;;;;10187746;28;20064;-61
2022/01/31 03:06:23;;;;;;;12.57;4.97;;;;;;;;;;10187304;28;20069;-63
2022/01/31 03:11:22;;;;;;;13.05;3.92;;;;;;;;;;10186289;28;20043;-62
2022/01/31 03:16:47;;;;;;;14.38;5.07;;;;;;;;;;10183774;28;20097;-64
2022/01/31 03:21:52;;;;;;;16.55;6.68;;;;;;;;;;10203064;28;20081;-62
2022/01/31 03:26:51;;;;;;;16.23;3.85;;;;;;;;;;10188689;28;20065;-62
2022/01/31 03:31:49;;;;;;;15.35;6.25;;;;;;;;;;10203117;28;20049;-63
2022/01/31 03:36:48;;;;;;;17.17;7.45;;;;;;;;;;10203153;28;20093;-62
2022/01/31 03:41:54;;;;;;;16.87;6.70;;;;;;;;;;10201841;28;20470;-62
2022/01/31 03:46:53;;;;;;;17.58;6.30;;;;;;;;;;10202038;28;20057;-62
2022/01/31 03:51:51;;;;;;;17.55;4.75;;;;;;;;;;10183795;28;20081;-61
2022/01/31 03:56:57;;;;;;;10.25;4.43;;;;;;;;;;10200772;28;20116;-62
2022/01/31 04:02:28;;;;;;;23.63;11.15;;;;;;;;;;10186998;28;20092;-62
2022/01/31 04:07:26;;;;;;;18.65;6.72;;;;;;;;;;10188403;28;20491;-62
2022/01/31 04:12:26;;;;;;;16.38;5.13;;;;;;;;;;10186933;28;20050;-62
2022/01/31 04:17:25;;;;;;;18.73;5.30;;;;;;;;;;10186494;28;20069;-62
2022/01/31 04:22:26;;;;;;;16.48;8.27;;;;;;;;;;10185807;28;20118;-62
2022/01/31 04:27:28;;;;;;;17.25;4.63;;;;;;;;;;10193704;28;20533;-62
2022/01/31 04:32:27;;;;;;;24.75;6.22;;;;;;;;;;10193041;28;20466;-62
2022/01/31 04:37:25;;;;;;;12.80;6.00;;;;;;;;;;10190164;28;20103;-62
2022/01/31 04:42:25;;;;;;;17.98;5.22;;;;;;;;;;10193302;28;20077;-63
2022/01/31 04:47:24;;;;;;;14.38;5.82;;;;;;;;;;10193096;28;20168;-63
2022/01/31 04:52:22;;;;;;;22.50;6.00;;;;;;;;;;10202909;28;20088;-62
2022/01/31 04:57:20;;;;;;;16.88;6.35;;;;;;;;;;10211380;28;20162;-63
2022/01/31 05:02:19;;;;;;;16.08;8.23;;;;;;;;;;10195869;28;20066;-63
2022/01/31 05:07:19;;;;;;;20.50;6.63;;;;;;;;;;10199471;28;20081;-63
2022/01/31 05:12:17;;;;;;;16.65;6.03;;;;;;;;;;10203474;28;20492;-63
2022/01/31 05:17:15;;;;;;;19.42;6.18;;;;;;;;;;10197697;28;20088;-63
2022/01/31 05:22:13;;;;;;;20.13;5.55;;;;;;;;;;10193459;28;20345;-63
2022/01/31 05:27:14;;;;;;;29.17;9.35;;;;;;;;;;10196475;28;20042;-62
2022/01/31 05:32:12;;;;;;;10.65;5.10;;;;;;;;;;10200718;28;20085;-62
2022/01/31 05:37:10;;;;;;;33.65;7.28;;;;;;;;;;10189728;28;20096;-62
2022/01/31 05:42:08;;;;;;;21.13;6.05;;;;;;;;;;10194478;28;20088;-64
2022/01/31 05:47:08;;;;;;;48.38;18.73;;;;;;;;;;10197321;28;20077;-63
2022/01/31 05:52:07;;;;;;;35.67;13.27;;;;;;;;;;10192632;28;20742;-63
2022/01/31 05:57:06;;;;;;;16.85;6.47;;;;;;;;;;10202475;28;20085;-63
2022/01/31 06:02:04;;;;;;;19.25;9.07;;;;;;;;;;10191818;28;20077;-63
2022/01/31 06:07:04;;;;;;;19.58;6.30;;;;;;;;;;10188882;28;20180;-63
2022/01/31 06:12:03;;;;;;;16.33;6.32;;;;;;;;;;10186892;28;20085;-63
2022/01/31 06:17:01;;;;;;;24.35;7.70;;;;;;;;;;10194939;28;20081;-63
2022/01/31 06:22:00;;;;;;;26.58;6.13;;;;;;;;;;10213820;28;20066;-63
2022/01/31 06:26:59;;;;;;;32.67;12.82;;;;;;;;;;10201374;28;20064;-62
2022/01/31 06:31:58;;;;;;;33.75;16.60;;;;;;;;;;10223029;28;20068;-62
2022/01/31 06:36:57;;;;;;;15.40;9.10;;;;;;;;;;10198664;28;20073;-63
2022/01/31 06:41:55;;;;;;;16.65;7.78;;;;;;;;;;10215422;28;20185;-63
2022/01/31 06:46:55;;;;;;;17.30;6.35;;;;;;;;;;10217980;28;20065;-63
2022/01/31 06:51:54;;;;;;;20.00;9.18;;;;;;;;;;10207678;28;20530;-64
2022/01/31 06:56:52;;;;;;;23.38;6.93;;;;;;;;;;10202081;28;20088;-63
2022/01/31 07:01:50;;;;;;;21.77;13.73;;;;;;;;;;10181459;28;20076;-63
2022/01/31 07:06:50;;;;;;;33.80;17.08;;;;;;;;;;10184363;28;20084;-63
2022/01/31 07:11:51;;;;;;;21.90;9.57;;;;;;;;;;10186552;28;20065;-63
2022/01/31 07:16:49;;;;;;;29.52;13.50;;;;;;;;;;10188596;28;20069;-63
2022/01/31 07:21:49;;;;;;;32.20;11.07;;;;;;;;;;10183767;28;20077;-63
2022/01/31 07:26:50;;;;;;;20.42;7.10;;;;;;;;;;10182393;28;20081;-63
2022/01/31 07:31:48;;;;;;;24.33;5.97;;;;;;;;;;10182147;28;20077;-63
2022/01/31 07:36:47;;;;;;;30.50;6.78;;;;;;;;;;10190658;28;20120;-63
2022/01/31 07:41:47;;;;;;;23.98;6.00;;;;;;;;;;10193893;28;20081;-63
2022/01/31 07:46:48;;;;;;;13.30;5.82;;;;;;;;;;10193543;28;20070;-63
2022/01/31 07:51:47;;;;;;;20.40;5.35;;;;;;;;;;10188359;28;20072;-63
2022/01/31 07:56:45;;;;;;;10.52;5.93;;;;;;;;;;10187666;28;20072;-63
2022/01/31 08:01:44;;;;;;;17.60;8.02;;;;;;;;;;10208448;28;20388;-63
2022/01/31 08:06:44;;;;;;;16.02;6.40;;;;;;;;;;10202879;28;20108;-63
2022/01/31 08:11:42;;;;;;;14.68;6.85;;;;;;;;;;10193471;28;20100;-63
2022/01/31 08:16:42;;;;;;;19.67;5.43;;;;;;;;;;10194515;28;20061;-63
2022/01/31 08:21:41;;;;;;;14.43;6.32;;;;;;;;;;10194867;28;20081;-64
2022/01/31 08:26:40;;;;;;;15.82;6.10;;;;;;;;;;10208966;28;20073;-63
2022/01/31 08:31:40;;;;;;;23.10;7.30;;;;;;;;;;10193739;28;20074;-63
2022/01/31 08:36:38;;;;;;;12.73;5.05;;;;;;;;;;10191790;28;20077;-62
2022/01/31 08:41:37;;;;;;;24.40;7.93;;;;;;;;;;10192991;28;20088;-63
2022/01/31 08:46:39;;;;;;;13.35;6.05;;;;;;;;;;10191310;28;20084;-63
2022/01/31 08:51:38;;;;;;;16.95;7.85;;;;;;;;;;10191147;28;20085;-63
2022/01/31 08:56:40;;;;;;;11.82;5.57;;;;;;;;;;10191121;28;20160;-63
2022/01/31 09:01:40;;;;;;;16.30;6.15;;;;;;;;;;10194232;28;20074;-63
2022/01/31 09:06:39;;;;;;;19.48;5.93;;;;;;;;;;10193425;28;20070;-63
2022/01/31 09:11:37;;;;;;;16.88;5.70;;;;;;;;;;10194476;28;20081;-64
2022/01/31 09:16:35;;;;;;;20.27;6.90;;;;;;;;;;10193607;28;20077;-64
2022/01/31 09:21:35;;;;;;;11.55;4.45;;;;;;;;;;10193391;28;20092;-63
2022/01/31 09:26:34;;;;;;;19.92;8.25;;;;;;;;;;10192543;28;20073;-63
2022/01/31 09:31:32;;;;;;;16.30;5.70;;;;;;;;;;10192608;28;20065;-63
2022/01/31 09:36:31;;;;;;;13.85;6.63;;;;;;;;;;10193229;28;20088;-64
2022/01/31 09:41:34;;;;;;;15.57;6.95;;;;;;;;;;10188448;28;20066;-63
2022/01/31 09:51:50;;;;;;;15.57;7.03;;;;;;;;;;10192564;28;20054;-63
2022/01/31 09:56:50;;;;;;;12.02;5.97;;;;;;;;;;10192199;28;20065;-63
2022/01/31 10:01:52;;;;;;;13.00;5.07;;;;;;;;;;10193681;28;20073;-63
2022/01/31 10:06:51;;;;;;;13.90;5.00;;;;;;;;;;10191965;28;21190;-63
2022/01/31 10:11:53;;;;;;;11.82;4.50;;;;;;;;;;10191825;28;20088;-63
2022/01/31 10:16:52;;;;;;;11.35;4.75;;;;;;;;;;10193755;28;20104;-63
2022/01/31 10:22:11;;;;;;;13.98;4.45;;;;;;;;;;10188042;28;20468;-63
2022/01/31 10:27:13;;;;;;;15.27;6.15;;;;;;;;;;10189466;28;20454;-64
2022/01/31 10:32:12;;;;;;;23.15;6.05;;;;;;;;;;10191390;28;20093;-63
2022/01/31 10:37:13;;;;;;;10.70;4.25;;;;;;;;;;10205002;28;20046;-62
2022/01/31 10:52:55;;;;;;;20.52;8.82;;;;;;;;;;10191373;28;20073;-63
2022/01/31 10:58:06;;;;;;;28.83;14.38;;;;;;;;;;10191648;28;20069;-63
2022/01/31 11:03:19;;;;;;;15.10;7.38;;;;;;;;;;10190568;28;20085;-63
2022/01/31 11:08:18;;;;;;;16.25;6.38;;;;;;;;;;10177857;28;20515;-63
2022/01/31 11:13:18;;;;;;;8.82;4.93;;;;;;;;;;10190298;28;20452;-64
2022/01/31 11:18:16;;;;;;;20.75;11.23;;;;;;;;;;10189359;28;20065;-63
2022/01/31 11:23:15;;;;;;;19.65;7.78;;;;;;;;;;10190136;28;20561;-63
2022/01/31 11:28:14;;;;;;;14.23;6.50;;;;;;;;;;10189826;28;20054;-63
2022/01/31 11:33:14;;;;;;;18.92;4.38;;;;;;;;;;10192215;28;20078;-63
2022/01/31 11:38:12;;;;;;;17.65;5.93;;;;;;;;;;10197509;28;20161;-64
2022/01/31 11:43:11;;;;;;;10.82;5.35;;;;;;;;;;10197906;28;20077;-64
2022/01/31 11:48:11;;;;;;;8.95;5.22;;;;;;;;;;10197814;28;20075;-64
2022/01/31 11:53:11;;;;;;;15.07;9.68;;;;;;;;;;10197651;28;20096;-64
2022/01/31 11:58:12;;;;;;;18.30;6.47;;;;;;;;;;10197362;28;20084;-64
2022/01/31 12:03:14;;;;;;;20.33;8.45;;;;;;;;;;10197303;28;20069;-64
2022/01/31 12:08:17;;;;;;;19.50;7.68;;;;;;;;;;10197419;28;20078;-64
2022/01/31 12:13:34;;;;;;;14.23;6.80;;;;;;;;;;10196902;28;20089;-64
2022/01/31 12:18:54;;;;;;;18.50;9.57;;;;;;;;;;10196870;28;20506;-64
2022/01/31 12:23:55;;;;;;;14.45;5.97;;;;;;;;;;10191725;28;20084;-64
2022/01/31 12:28:54;;;;;;;12.70;5.97;;;;;;;;;;10196407;28;20495;-64
2022/01/31 12:33:53;;;;;;;9.90;5.60;;;;;;;;;;10196266;28;20096;-64
2022/01/31 12:38:51;;;;;;;17.40;8.20;;;;;;;;;;10195876;28;20184;-64
2022/01/31 12:43:56;;;;;;;28.08;9.88;;;;;;;;;;10194604;28;20074;-64
2022/01/31 12:49:09;;;;;;;9.52;5.75;;;;;;;;;;10196823;28;20081;-64
2022/01/31 12:54:07;;;;;;;12.38;6.70;;;;;;;;;;10195813;28;20050;-64
2022/01/31 12:59:11;;;;;;;17.60;6.93;;;;;;;;;;10194905;28;20046;-64
2022/01/31 13:04:10;;;;;;;17.03;7.73;;;;;;;;;;10195093;28;20089;-64
2022/01/31 13:09:10;;;;;;;21.50;11.15;;;;;;;;;;10195161;28;20369;-64
2022/01/31 13:14:14;;;;;;;23.15;9.32;;;;;;;;;;10194800;28;20085;-64
2022/01/31 13:19:34;;;;;;;16.85;7.47;;;;;;;;;;10194668;28;20366;-64
2022/01/31 13:24:34;;;;;;;17.75;6.25;;;;;;;;;;10188773;28;20551;-64
2022/01/31 13:29:36;;;;;;;17.35;6.68;;;;;;;;;;10188066;28;20105;-64
2022/01/31 13:34:37;;;;;;;17.65;9.50;;;;;;;;;;10188488;28;20082;-64
2022/01/31 13:39:36;;;;;;;29.20;13.40;;;;;;;;;;10192751;28;20057;-64
2022/01/31 13:44:36;;;;;;;13.15;7.07;;;;;;;;;;10193561;28;20277;-64
2022/01/31 13:49:39;;;;;;;14.35;6.95;;;;;;;;;;10193388;28;20095;-64
2022/01/31 13:54:38;;;;;;;12.02;6.20;;;;;;;;;;10184938;28;20089;-64
2022/01/31 13:59:38;;;;;;;16.90;8.40;;;;;;;;;;10192871;28;20066;-63
2022/01/31 14:04:37;;;;;;;15.52;7.68;;;;;;;;;;10192698;28;20081;-64
2022/01/31 14:09:35;;;;;;;11.82;7.10;;;;;;;;;;10192601;28;20080;-64
2022/01/31 14:14:35;;;;;;;16.45;7.43;;;;;;;;;;10192427;28;20085;-64
2022/01/31 14:19:35;;;;;;;14.82;8.05;;;;;;;;;;10192814;28;20065;-63
2022/01/31 14:24:33;;;;;;;25.65;9.45;;;;;;;;;;10191990;28;20096;-64
2022/01/31 14:29:36;;;;;;;43.08;21.08;;;;;;;;;;10185457;28;20069;-64
2022/01/31 14:34:36;;;;;;;25.27;12.75;;;;;;;;;;10191936;28;20546;-64
2022/01/31 14:39:39;;;;;;;17.05;6.57;;;;;;;;;;10190639;28;20077;-64
2022/01/31 14:50:11;;;;;;;20.73;12.45;;;;;;;;;;10166855;28;20133;-64
2022/01/31 14:55:12;;;;;;;16.90;6.65;;;;;;;;;;10190356;28;20085;-64
2022/01/31 15:00:11;;;;;;;24.13;14.02;;;;;;;;;;10192066;28;20073;-63
2022/01/31 15:05:12;;;;;;;78.40;39.40;;;;;;;;;;10190181;28;20082;-63
2022/01/31 15:10:11;;;;;;;35.95;20.15;;;;;;;;;;10190344;28;20519;-64
2022/01/31 15:15:09;;;;;;;33.50;16.90;;;;;;;;;;10190814;28;20053;-63
2022/01/31 15:20:09;;;;;;;38.70;20.00;;;;;;;;;;10189930;28;20038;-63
2022/01/31 15:25:09;;;;;;;46.58;22.23;;;;;;;;;;10189186;28;20084;-62
2022/01/31 15:30:08;;;;;;;29.65;18.08;;;;;;;;;;10190434;28;20046;-62
2022/01/31 15:35:09;;;;;;;25.88;14.93;;;;;;;;;;10186702;28;20070;-62
2022/01/31 15:40:11;;;;;;;42.85;25.08;;;;;;;;;;10188774;28;20101;-61
2022/01/31 15:45:09;;;;;;;51.42;29.50;;;;;;;;;;10203186;28;20110;-62
2022/01/31 15:50:08;;;;;;;46.13;23.33;;;;;;;;;;10203035;28;20072;-61
2022/01/31 15:55:10;;;;;;;63.95;37.05;;;;;;;;;;10198244;28;20165;-61
2022/01/31 16:00:11;;;;;;;55.33;31.20;;;;;;;;;;10210833;28;20128;-61
2022/01/31 16:05:09;;;;;;;38.22;23.05;;;;;;;;;;10214624;28;20096;-62
2022/01/31 16:10:08;;;;;;;58.13;32.25;;;;;;;;;;10213184;28;20080;-61
2022/01/31 16:15:09;;;;;;;39.30;20.10;;;;;;;;;;10202154;28;20076;-61
2022/01/31 16:20:07;;;;;;;22.13;14.18;;;;;;;;;;10198047;28;20489;-61
2022/01/31 16:25:07;;;;;;;68.03;35.35;;;;;;;;;;10195581;28;20131;-61
2022/01/31 16:30:06;;;;;;;37.80;21.10;;;;;;;;;;10196074;28;20082;-61
2022/01/31 16:35:06;;;;;;;42.33;23.02;;;;;;;;;;10196442;28;20077;-62
2022/01/31 16:40:06;;;;;;;43.40;22.98;;;;;;;;;;10194562;28;20081;-63
2022/01/31 16:45:05;;;;;;;56.72;33.25;;;;;;;;;;10195979;28;20085;-62
2022/01/31 16:50:07;;;;;;;49.97;30.98;;;;;;;;;;10208632;28;20069;-61
2022/01/31 16:55:07;;;;;;;57.40;32.15;;;;;;;;;;10202487;28;20069;-62
2022/01/31 17:00:06;;;;;;;44.50;27.48;;;;;;;;;;10205074;28;20073;-63
2022/01/31 17:05:05;;;;;;;50.35;33.75;;;;;;;;;;10192443;28;20463;-64
2022/01/31 17:10:05;;;;;;;59.00;33.67;;;;;;;;;;10195369;28;20069;-62
2022/01/31 17:15:05;;;;;;;81.88;46.00;;;;;;;;;;10201615;28;20487;-63
2022/01/31 17:20:03;;;;;;;66.70;38.28;;;;;;;;;;10192274;28;20065;-62
2022/01/31 17:25:02;;;;;;;42.90;24.50;;;;;;;;;;10191668;28;20554;-63
2022/01/31 17:30:03;;;;;;;65.82;40.03;;;;;;;;;;10192098;28;20038;-63
2022/01/31 17:35:02;;;;;;;51.92;29.63;;;;;;;;;;10193058;28;20042;-62
2022/01/31 17:40:00;;;;;;;67.13;38.50;;;;;;;;;;10192402;28;20081;-63
2022/01/31 17:45:01;;;;;;;43.63;21.23;;;;;;;;;;10193004;28;20480;-63
2022/01/31 17:50:02;;;;;;;40.35;22.70;;;;;;;;;;10193034;28;20080;-63
2022/01/31 17:55:02;;;;;;;36.45;18.90;;;;;;;;;;10192775;28;20088;-63
2022/01/31 18:00:00;;;;;;;50.13;25.48;;;;;;;;;;10193645;28;20099;-63
2022/01/31 18:05:00;;;;;;;28.48;13.38;;;;;;;;;;10191181;28;20515;-63
2022/01/31 18:09:58;;;;;;;41.83;21.40;;;;;;;;;;10191616;28;20073;-63
2022/01/31 18:14:56;;;;;;;27.45;12.07;;;;;;;;;;10192279;28;20085;-62
2022/01/31 18:19:54;;;;;;;60.13;27.08;;;;;;;;;;10191281;28;20477;-62
2022/01/31 18:24:55;;;;;;;37.65;19.25;;;;;;;;;;10191912;28;20084;-63
2022/01/31 18:29:53;;;;;;;21.38;9.82;;;;;;;;;;10191102;28;20045;-62
2022/01/31 18:34:51;;;;;;;21.15;11.65;;;;;;;;;;10191567;28;20527;-63
2022/01/31 18:39:49;;;;;;;15.32;8.75;;;;;;;;;;10190482;28;20081;-63
2022/01/31 18:44:49;;;;;;;31.15;13.10;;;;;;;;;;10191476;28;20081;-62
2022/01/31 18:49:53;;;;;;;16.02;8.25;;;;;;;;;;10191178;28;20070;-62
2022/01/31 18:54:51;;;;;;;34.67;17.67;;;;;;;;;;10190263;28;20069;-63
2022/01/31 18:59:51;;;;;;;30.00;15.07;;;;;;;;;;10190235;28;20116;-62
2022/01/31 19:04:53;;;;;;;25.58;14.13;;;;;;;;;;10191066;28;20077;-62
2022/01/31 19:09:51;;;;;;;28.50;12.07;;;;;;;;;;10190379;28;20076;-63
2022/01/31 19:20:09;;;;;;;26.05;12.27;;;;;;;;;;10164813;28;20078;-62
2022/01/31 19:25:08;;;;;;;29.33;16.52;;;;;;;;;;10189255;28;20104;-63
2022/01/31 19:30:08;;;;;;;56.13;26.60;;;;;;;;;;10205784;28;20057;-63
2022/01/31 19:35:07;;;;;;;36.45;18.50;;;;;;;;;;10189493;28;20076;-62
2022/01/31 19:45:23;;;;;;;31.65;18.73;;;;;;;;;;10189487;28;20089;-64
2022/01/31 19:50:21;;;;;;;31.75;16.77;;;;;;;;;;10190591;28;20100;-64
2022/01/31 19:55:20;;;;;;;18.40;11.25;;;;;;;;;;10192960;28;20478;-63
2022/01/31 20:00:19;;;;;;;31.88;15.43;;;;;;;;;;10196631;28;20074;-63
2022/01/31 20:05:18;;;;;;;37.15;22.27;;;;;;;;;;10196394;28;20073;-63
2022/01/31 20:10:18;;;;;;;13.80;8.05;;;;;;;;;;10196559;28;20066;-63
2022/01/31 20:15:17;;;;;;;16.63;8.10;;;;;;;;;;10196638;28;20075;-63
2022/01/31 20:20:15;;;;;;;32.83;15.32;;;;;;;;;;10198047;28;20072;-63
2022/01/31 20:25:16;;;;;;;18.88;7.40;;;;;;;;;;10196321;28;20092;-63
2022/01/31 20:30:14;;;;;;;28.08;13.73;;;;;;;;;;10210794;28;20058;-63
2022/01/31 20:35:12;;;;;;;27.25;15.10;;;;;;;;;;10195784;28;20065;-63
2022/01/31 20:40:28;;;;;;;22.95;11.82;;;;;;;;;;10199560;28;20088;-63
2022/01/31 20:45:26;;;;;;;;;;;;;;;;;;10200145;28;20088;-61
2022/01/31 20:50:25;;;;;;;;;;;;;;;;;;10200349;28;19975;-61
2022/01/31 20:55:23;;;;;;;;;;;;;;;;;;10195875;28;19922;-62
2022/01/31 21:00:21;;;;;;;;;;;;;;;;;;10194687;28;19932;-61
2022/01/31 21:05:19;;;;;;;;;;;;;;;;;;10197969;28;19976;-62
2022/01/31 21:10:17;;;;;;;;;;;;;;;;;;10191617;28;20394;-61
2022/01/31 21:15:16;;;;;;;;;;;;;;;;;;10196912;28;19969;-62
2022/01/31 21:20:14;;;;;;;;;;;;;;;;;;10199724;28;19971;-62
2022/01/31 21:25:13;;;;;;;;;;;;;;;;;;10209867;28;19972;-62
2022/01/31 21:30:11;;;;;;;;;;;;;;;;;;10194167;28;19979;-63
2022/01/31 21:35:09;;;;;;;;;;;;;;;;;;10192590;28;19925;-62
2022/01/31 21:40:07;;;;;;;;;;;;;;;;;;10196998;28;19971;-62
2022/01/31 21:45:05;;;;;;;;;;;;;;;;;;10213557;28;19968;-63
2022/01/31 21:50:03;;;;;;;;;;;;;;;;;;10213350;28;19960;-62
2022/01/31 21:55:01;;;;;;;;;;;;;;;;;;10205773;28;19961;-63
2022/01/31 21:59:59;;;;;;;;;;;;;;;;;;10204158;28;19948;-62
2022/01/31 22:04:57;;;;;;;;;;;;;;;;;;10196069;28;19965;-62
2022/01/31 22:10:05;;;;;;;;;;;;;;;;;;10191340;28;19949;-62
2022/01/31 22:15:03;;;;;;;;;;;;;;;;;;10192026;28;19964;-63
2022/01/31 22:20:01;;;;;;;;;;;;;;;;;;10191345;28;20225;-62
2022/01/31 22:24:59;;;;;;;;;;;;;;;;;;10191711;28;19971;-63
2022/01/31 22:29:57;;;;;;;;;;;;;;;;;;10192161;28;19949;-62
2022/01/31 22:34:56;;;;;;;;;;;;;;;;;;10191250;28;19956;-63
2022/01/31 22:39:54;;;;;;;;;;;;;;;;;;10191039;28;19968;-61
2022/01/31 22:44:52;;;;;;;;;;;;;;;;;;10191263;28;20383;-63
2022/01/31 22:49:56;;;;;;;;;;;;;;;;;;10190958;28;19940;-62
2022/01/31 22:54:54;;;;;;;;;;;;;;;;;;10191099;28;19941;-63
2022/01/31 22:59:52;;;;;;;;;;;;;;;;;;10190417;28;19972;-63
2022/01/31 23:04:50;;;;;;;;;;;;;;;;;;10190641;28;19976;-63
2022/01/31 23:09:48;;;;;;;;;;;;;;;;;;10190859;28;20402;-62
2022/01/31 23:14:51;;;;;;;;;;;;;;;;;;10190033;28;19981;-63
2022/01/31 23:19:55;;;;;;;;;;;;;;;;;;10189711;28;19953;-63
2022/01/31 23:51:58;;;;;;;;;;;;;;;;;;10179549;28;20346;-62
